< < Back
Terminal Aerodrome Forecast


Current Version              Previous Versions:   1  2  3  4  5  6  7  8  9  

Terminal Aerodrome Forecast

980
FTUS42 KILM 190500
TAFFLO
TAF
KFLO 190537Z 1906/2006 34005KT P6SM BKN070 OVC090
     FM191300 01010G19KT P6SM SKC
     FM191600 01007KT P6SM SKC
     FM192200 VRB03KT P6SM SKC=



Latest METAR

090
SAUS70 KWBC 200900 RRG
MTRFLO
METAR KFLO 200853Z AUTO 00000KT 10SM CLR 08/06 A3014 RMK AO2 SLP203
T00780061 53000


USA.gov is the U.S. government's official web portal to all federal, state and local government web resources and services.